Aérodrome :
LOGIN :

S'inscrire | Disclaimer

   EN    FR    IT 

 










Légende :    VFR   VFR Marginal   IFR   IFR Intensif   IFR Très Intensif
Visi : 
Plafond : 
>= 8 km
>= 3000ft
5 à 8 km
1000 à 3000 ft
1500m à 5 km
500 à 1000 ft
800 à 1500m
200 à 500 ft
< 800m
< 200 ft
Symboles :   Orages  Brouillard  Fortes neiges  Fortes précipitations  Vent > 20 kt
SIGMETs :   Divers  Orages  Givrage  Turbulence  Onde Orograph.  Cendres Volcan.






- Altitude de l'aérodrome : 81 ft
- Code IATA : SCS


EGPM - Scatsta

DERNIER METAR :
  • 100320Z AUTO 16009KT 9999 NCD 06/03 Q1025

METARs EXPIRÉS :
  • 100250Z AUTO 16008KT 9999 NCD 06/04 Q1026
  • 100220Z AUTO 16007KT 9999 FEW016/// 06/04 Q1026
  • 100150Z AUTO 15010KT 9999 SCT017/// 06/04 Q1026
  • 100120Z AUTO 15010KT 9999 NCD 06/03 Q1026
  • 100050Z AUTO 15009KT 9999 NCD 05/03 Q1027

TAF TAF EGPM
Valide du 10 à 03h jusqu'au 10 à 12h UTC


100154Z 1003/1012 16009KT 9999 SCT020 BKN040
BECMG 1003/1006 BKN012
TEMPO 1006/1012 6000 BKN006
PROB40
TEMPO 1006/1012 4000 BR BKN003



MET'MAP, la Météo Aéronautique d'un coup d'oeil ! - Copyright ORBIFLY Décembre 2007 - Disclaimer

ORBIFLY MET'MAP TEAM :

Programmation & Développement : Alexandra Zaïnal
Sur une idée originale de : Baudouin d'Aumeries
Assistance à la programmation : Marc-Olivier Méhu
Soutien technique & logistique : Manuel Goepfert

Contact : metmap@orbifly.com




SOURCES & CREDITS :

   NOAA